X  Schlie├čen METAR Luftfahrt Wetterdaten     EDDM Munich Airport
Temperatur
19°C Temperatur
17°C Taupunkt
88% Feuchtigkeit



Wind
16 km/h
10 MPS
4 m/s
9 Ktn



240°
WSW
Aktuelle Wetterlage

Leicht  Thunderstorm, Regen Leicht Thunderstorm, Regen
Luftdruck 1011.85 (hPa) - 29.88 (inchHg)
Sichtweite 6 (Meile) - 9.7 (Km)
Flughafen
Flughafen Code EDDM

Position : Munich Airport
Entfernung: 73 (Km)

Metar:
EDDM 211920Z AUTO 24009KT 210V300 9999 -TSRA BKN///CB 19/17 Q1012 RESHRA BECMG SHRA

Zeit: 21-07-2024 19:20 CEST